sensor_id;sensor_type;location;lat;lon;timestamp;P1;durP1;ratioP1;P2;durP2;ratioP2
33714;SDS011;20043;50.998;4.754;2024-03-02T00:00:51;1.42;;;0.80;;
33714;SDS011;20043;50.998;4.754;2024-03-02T00:03:17;2.47;;;0.88;;
33714;SDS011;20043;50.998;4.754;2024-03-02T00:05:43;2.15;;;0.90;;
33714;SDS011;20043;50.998;4.754;2024-03-02T00:08:09;1.95;;;0.80;;
33714;SDS011;20043;50.998;4.754;2024-03-02T00:10:36;3.60;;;0.85;;
33714;SDS011;20043;50.998;4.754;2024-03-02T00:13:04;3.28;;;1.27;;
33714;SDS011;20043;50.998;4.754;2024-03-02T00:15:40;1.25;;;0.80;;
33714;SDS011;20043;50.998;4.754;2024-03-02T00:18:18;3.85;;;0.95;;
33714;SDS011;20043;50.998;4.754;2024-03-02T00:20:52;2.00;;;0.95;;
33714;SDS011;20043;50.998;4.754;2024-03-02T00:23:20;1.33;;;0.88;;
33714;SDS011;20043;50.998;4.754;2024-03-02T00:25:47;3.00;;;0.70;;
33714;SDS011;20043;50.998;4.754;2024-03-02T00:28:21;1.60;;;0.82;;
33714;SDS011;20043;50.998;4.754;2024-03-02T00:36:01;3.05;;;0.80;;
33714;SDS011;20043;50.998;4.754;2024-03-02T00:38:28;3.15;;;1.02;;
33714;SDS011;20043;50.998;4.754;2024-03-02T00:40:54;1.52;;;0.40;;
33714;SDS011;20043;50.998;4.754;2024-03-02T00:46:18;0.93;;;0.50;;
33714;SDS011;20043;50.998;4.754;2024-03-02T00:49:03;1.33;;;0.60;;
33714;SDS011;20043;50.998;4.754;2024-03-02T00:51:36;0.90;;;0.60;;
33714;SDS011;20043;50.998;4.754;2024-03-02T00:54:08;0.95;;;0.60;;
33714;SDS011;20043;50.998;4.754;2024-03-02T00:56:35;1.75;;;0.60;;
33714;SDS011;20043;50.998;4.754;2024-03-02T00:59:00;2.03;;;0.50;;
33714;SDS011;20043;50.998;4.754;2024-03-02T01:01:26;1.00;;;0.50;;
33714;SDS011;20043;50.998;4.754;2024-03-02T01:03:52;1.40;;;0.70;;
33714;SDS011;20043;50.998;4.754;2024-03-02T01:06:18;1.23;;;0.40;;
33714;SDS011;20043;50.998;4.754;2024-03-02T01:08:44;1.40;;;0.45;;
33714;SDS011;20043;50.998;4.754;2024-03-02T01:11:10;1.08;;;0.57;;
33714;SDS011;20043;50.998;4.754;2024-03-02T01:13:35;1.38;;;0.70;;
33714;SDS011;20043;50.998;4.754;2024-03-02T01:16:01;0.75;;;0.70;;
33714;SDS011;20043;50.998;4.754;2024-03-02T01:18:27;1.63;;;0.65;;
33714;SDS011;20043;50.998;4.754;2024-03-02T01:20:53;5.60;;;0.90;;
33714;SDS011;20043;50.998;4.754;2024-03-02T01:23:21;1.85;;;0.90;;
33714;SDS011;20043;50.998;4.754;2024-03-02T01:25:47;3.00;;;0.95;;
33714;SDS011;20043;50.998;4.754;2024-03-02T01:28:13;1.40;;;0.68;;
33714;SDS011;20043;50.998;4.754;2024-03-02T01:30:39;1.52;;;0.73;;
33714;SDS011;20043;50.998;4.754;2024-03-02T01:33:12;4.18;;;0.70;;
33714;SDS011;20043;50.998;4.754;2024-03-02T01:35:37;1.30;;;0.80;;
33714;SDS011;20043;50.998;4.754;2024-03-02T01:38:03;1.27;;;0.73;;
33714;SDS011;20043;50.998;4.754;2024-03-02T01:40:33;1.65;;;0.60;;
33714;SDS011;20043;50.998;4.754;2024-03-02T01:42:59;1.33;;;0.60;;
33714;SDS011;20043;50.998;4.754;2024-03-02T01:45:25;1.30;;;0.60;;
33714;SDS011;20043;50.998;4.754;2024-03-02T01:47:50;0.75;;;0.50;;
33714;SDS011;20043;50.998;4.754;2024-03-02T01:50:24;1.55;;;0.55;;
33714;SDS011;20043;50.998;4.754;2024-03-02T01:52:55;3.20;;;0.80;;
33714;SDS011;20043;50.998;4.754;2024-03-02T01:55:21;1.60;;;0.60;;
33714;SDS011;20043;50.998;4.754;2024-03-02T01:57:47;1.60;;;0.65;;
33714;SDS011;20043;50.998;4.754;2024-03-02T02:00:14;1.13;;;0.50;;
33714;SDS011;20043;50.998;4.754;2024-03-02T02:02:47;3.13;;;0.60;;
33714;SDS011;20043;50.998;4.754;2024-03-02T02:05:13;0.68;;;0.40;;
33714;SDS011;20043;50.998;4.754;2024-03-02T02:07:40;1.13;;;0.60;;
33714;SDS011;20043;50.998;4.754;2024-03-02T02:10:07;1.02;;;0.50;;
33714;SDS011;20043;50.998;4.754;2024-03-02T02:12:33;4.95;;;0.75;;
33714;SDS011;20043;50.998;4.754;2024-03-02T02:14:59;2.00;;;0.73;;
33714;SDS011;20043;50.998;4.754;2024-03-02T02:17:25;2.05;;;1.05;;
33714;SDS011;20043;50.998;4.754;2024-03-02T02:19:51;1.83;;;0.63;;
33714;SDS011;20043;50.998;4.754;2024-03-02T02:22:16;2.15;;;0.73;;
33714;SDS011;20043;50.998;4.754;2024-03-02T02:24:42;2.80;;;0.65;;
33714;SDS011;20043;50.998;4.754;2024-03-02T02:27:08;1.27;;;0.60;;
33714;SDS011;20043;50.998;4.754;2024-03-02T02:29:35;4.55;;;0.75;;
33714;SDS011;20043;50.998;4.754;2024-03-02T02:32:01;1.75;;;0.55;;
33714;SDS011;20043;50.998;4.754;2024-03-02T02:34:27;1.30;;;0.50;;
33714;SDS011;20043;50.998;4.754;2024-03-02T02:36:53;2.15;;;0.70;;
33714;SDS011;20043;50.998;4.754;2024-03-02T02:39:19;2.10;;;0.70;;
33714;SDS011;20043;50.998;4.754;2024-03-02T02:41:47;2.28;;;0.63;;
33714;SDS011;20043;50.998;4.754;2024-03-02T02:44:13;1.50;;;0.60;;
33714;SDS011;20043;50.998;4.754;2024-03-02T02:46:39;2.13;;;0.60;;
33714;SDS011;20043;50.998;4.754;2024-03-02T02:49:05;2.67;;;0.65;;
33714;SDS011;20043;50.998;4.754;2024-03-02T02:51:31;3.60;;;1.05;;
33714;SDS011;20043;50.998;4.754;2024-03-02T02:53:56;2.67;;;0.60;;
33714;SDS011;20043;50.998;4.754;2024-03-02T02:56:22;1.20;;;0.60;;
33714;SDS011;20043;50.998;4.754;2024-03-02T02:58:47;2.17;;;0.70;;
33714;SDS011;20043;50.998;4.754;2024-03-02T03:01:14;3.38;;;0.60;;
33714;SDS011;20043;50.998;4.754;2024-03-02T03:03:43;3.97;;;0.70;;
33714;SDS011;20043;50.998;4.754;2024-03-02T03:06:09;1.90;;;0.60;;
33714;SDS011;20043;50.998;4.754;2024-03-02T03:08:35;2.58;;;0.70;;
33714;SDS011;20043;50.998;4.754;2024-03-02T03:11:01;2.38;;;0.73;;
33714;SDS011;20043;50.998;4.754;2024-03-02T03:13:26;3.75;;;0.60;;
33714;SDS011;20043;50.998;4.754;2024-03-02T03:15:52;4.57;;;0.90;;
33714;SDS011;20043;50.998;4.754;2024-03-02T03:18:18;4.18;;;0.70;;
33714;SDS011;20043;50.998;4.754;2024-03-02T03:20:44;1.52;;;0.55;;
33714;SDS011;20043;50.998;4.754;2024-03-02T03:23:09;4.35;;;0.70;;
33714;SDS011;20043;50.998;4.754;2024-03-02T03:25:40;5.03;;;0.77;;
33714;SDS011;20043;50.998;4.754;2024-03-02T03:28:06;3.35;;;0.70;;
33714;SDS011;20043;50.998;4.754;2024-03-02T03:30:31;3.08;;;0.60;;
33714;SDS011;20043;50.998;4.754;2024-03-02T03:32:57;4.18;;;0.80;;
33714;SDS011;20043;50.998;4.754;2024-03-02T03:35:22;3.97;;;0.75;;
33714;SDS011;20043;50.998;4.754;2024-03-02T03:37:48;4.10;;;0.98;;
33714;SDS011;20043;50.998;4.754;2024-03-02T03:40:14;3.80;;;0.90;;
33714;SDS011;20043;50.998;4.754;2024-03-02T03:42:39;3.40;;;0.80;;
33714;SDS011;20043;50.998;4.754;2024-03-02T03:45:06;8.60;;;0.88;;
33714;SDS011;20043;50.998;4.754;2024-03-02T03:47:32;8.00;;;0.93;;
33714;SDS011;20043;50.998;4.754;2024-03-02T03:49:57;1.35;;;0.50;;
33714;SDS011;20043;50.998;4.754;2024-03-02T03:52:23;6.15;;;1.13;;
33714;SDS011;20043;50.998;4.754;2024-03-02T03:54:49;4.55;;;0.93;;
33714;SDS011;20043;50.998;4.754;2024-03-02T03:57:15;3.92;;;1.00;;
33714;SDS011;20043;50.998;4.754;2024-03-02T03:59:41;4.63;;;0.70;;
33714;SDS011;20043;50.998;4.754;2024-03-02T04:02:07;1.80;;;0.70;;
33714;SDS011;20043;50.998;4.754;2024-03-02T04:04:33;3.92;;;0.68;;
33714;SDS011;20043;50.998;4.754;2024-03-02T04:06:58;3.83;;;0.85;;
33714;SDS011;20043;50.998;4.754;2024-03-02T04:09:24;4.15;;;0.90;;
33714;SDS011;20043;50.998;4.754;2024-03-02T04:11:50;2.47;;;0.82;;
33714;SDS011;20043;50.998;4.754;2024-03-02T04:14:16;2.83;;;0.90;;
33714;SDS011;20043;50.998;4.754;2024-03-02T04:16:42;4.80;;;1.05;;
33714;SDS011;20043;50.998;4.754;2024-03-02T04:19:07;3.53;;;0.82;;
33714;SDS011;20043;50.998;4.754;2024-03-02T04:21:33;4.82;;;1.00;;
33714;SDS011;20043;50.998;4.754;2024-03-02T04:24:05;3.95;;;0.80;;
33714;SDS011;20043;50.998;4.754;2024-03-02T04:26:31;6.47;;;1.02;;
33714;SDS011;20043;50.998;4.754;2024-03-02T04:28:56;3.08;;;0.95;;
33714;SDS011;20043;50.998;4.754;2024-03-02T04:31:22;6.47;;;1.02;;
33714;SDS011;20043;50.998;4.754;2024-03-02T04:33:47;4.10;;;1.00;;
33714;SDS011;20043;50.998;4.754;2024-03-02T04:36:13;4.15;;;0.85;;
33714;SDS011;20043;50.998;4.754;2024-03-02T04:38:39;3.25;;;1.10;;
33714;SDS011;20043;50.998;4.754;2024-03-02T04:41:05;7.35;;;1.00;;
33714;SDS011;20043;50.998;4.754;2024-03-02T04:43:31;2.95;;;0.90;;
33714;SDS011;20043;50.998;4.754;2024-03-02T04:45:57;1.75;;;0.60;;
33714;SDS011;20043;50.998;4.754;2024-03-02T04:48:23;2.55;;;0.70;;
33714;SDS011;20043;50.998;4.754;2024-03-02T04:50:49;4.68;;;0.82;;
33714;SDS011;20043;50.998;4.754;2024-03-02T04:53:15;2.72;;;1.10;;
33714;SDS011;20043;50.998;4.754;2024-03-02T04:55:41;1.80;;;0.70;;
33714;SDS011;20043;50.998;4.754;2024-03-02T04:58:07;6.10;;;0.90;;
33714;SDS011;20043;50.998;4.754;2024-03-02T05:00:32;4.82;;;0.82;;
33714;SDS011;20043;50.998;4.754;2024-03-02T05:02:58;10.10;;;0.85;;
33714;SDS011;20043;50.998;4.754;2024-03-02T05:05:24;3.05;;;0.80;;
33714;SDS011;20043;50.998;4.754;2024-03-02T05:07:50;3.20;;;0.80;;
33714;SDS011;20043;50.998;4.754;2024-03-02T05:10:15;3.58;;;0.85;;
33714;SDS011;20043;50.998;4.754;2024-03-02T05:12:41;5.88;;;1.08;;
33714;SDS011;20043;50.998;4.754;2024-03-02T05:15:07;1.88;;;0.90;;
33714;SDS011;20043;50.998;4.754;2024-03-02T05:17:33;5.03;;;0.95;;
33714;SDS011;20043;50.998;4.754;2024-03-02T05:19:59;6.60;;;0.90;;
33714;SDS011;20043;50.998;4.754;2024-03-02T05:22:24;7.93;;;1.02;;
33714;SDS011;20043;50.998;4.754;2024-03-02T05:24:50;6.05;;;1.10;;
33714;SDS011;20043;50.998;4.754;2024-03-02T05:27:15;12.65;;;1.08;;
33714;SDS011;20043;50.998;4.754;2024-03-02T05:29:41;4.55;;;0.80;;
33714;SDS011;20043;50.998;4.754;2024-03-02T05:32:06;3.65;;;1.10;;
33714;SDS011;20043;50.998;4.754;2024-03-02T05:34:32;2.15;;;0.77;;
33714;SDS011;20043;50.998;4.754;2024-03-02T05:37:00;4.38;;;1.00;;
33714;SDS011;20043;50.998;4.754;2024-03-02T05:39:26;5.35;;;1.20;;
33714;SDS011;20043;50.998;4.754;2024-03-02T05:41:51;3.17;;;0.85;;
33714;SDS011;20043;50.998;4.754;2024-03-02T05:44:17;6.15;;;1.30;;
33714;SDS011;20043;50.998;4.754;2024-03-02T05:46:43;3.60;;;1.05;;
33714;SDS011;20043;50.998;4.754;2024-03-02T05:49:09;3.83;;;0.95;;
33714;SDS011;20043;50.998;4.754;2024-03-02T05:51:35;6.93;;;1.13;;
33714;SDS011;20043;50.998;4.754;2024-03-02T05:54:01;5.00;;;0.95;;
33714;SDS011;20043;50.998;4.754;2024-03-02T05:56:26;8.82;;;1.40;;
33714;SDS011;20043;50.998;4.754;2024-03-02T05:58:52;6.95;;;1.20;;
33714;SDS011;20043;50.998;4.754;2024-03-02T06:01:44;6.60;;;1.05;;
33714;SDS011;20043;50.998;4.754;2024-03-02T06:04:12;6.35;;;1.20;;
33714;SDS011;20043;50.998;4.754;2024-03-02T06:06:38;6.75;;;1.15;;
33714;SDS011;20043;50.998;4.754;2024-03-02T06:09:04;6.82;;;1.27;;
33714;SDS011;20043;50.998;4.754;2024-03-02T06:11:33;3.35;;;1.15;;
33714;SDS011;20043;50.998;4.754;2024-03-02T06:13:59;4.22;;;1.23;;
33714;SDS011;20043;50.998;4.754;2024-03-02T06:16:24;8.05;;;1.13;;
33714;SDS011;20043;50.998;4.754;2024-03-02T06:18:50;3.67;;;1.27;;
33714;SDS011;20043;50.998;4.754;2024-03-02T06:21:16;3.53;;;1.10;;
33714;SDS011;20043;50.998;4.754;2024-03-02T06:23:43;7.53;;;0.95;;
33714;SDS011;20043;50.998;4.754;2024-03-02T06:26:09;6.07;;;1.25;;
33714;SDS011;20043;50.998;4.754;2024-03-02T06:28:34;5.63;;;1.15;;
33714;SDS011;20043;50.998;4.754;2024-03-02T06:31:00;4.97;;;1.20;;
33714;SDS011;20043;50.998;4.754;2024-03-02T06:33:27;6.85;;;1.63;;
33714;SDS011;20043;50.998;4.754;2024-03-02T06:35:53;4.78;;;1.23;;
33714;SDS011;20043;50.998;4.754;2024-03-02T06:38:19;3.88;;;1.33;;
33714;SDS011;20043;50.998;4.754;2024-03-02T06:40:45;5.25;;;1.10;;
33714;SDS011;20043;50.998;4.754;2024-03-02T06:43:10;6.82;;;1.85;;
33714;SDS011;20043;50.998;4.754;2024-03-02T06:45:36;7.70;;;1.77;;
33714;SDS011;20043;50.998;4.754;2024-03-02T06:48:01;4.47;;;1.40;;
33714;SDS011;20043;50.998;4.754;2024-03-02T06:50:27;3.42;;;1.00;;
33714;SDS011;20043;50.998;4.754;2024-03-02T06:52:53;9.20;;;1.20;;
33714;SDS011;20043;50.998;4.754;2024-03-02T06:55:20;9.27;;;1.10;;
33714;SDS011;20043;50.998;4.754;2024-03-02T06:57:46;8.35;;;1.63;;
33714;SDS011;20043;50.998;4.754;2024-03-02T07:00:12;7.13;;;1.25;;
33714;SDS011;20043;50.998;4.754;2024-03-02T07:02:38;5.50;;;1.50;;
33714;SDS011;20043;50.998;4.754;2024-03-02T07:05:06;6.80;;;1.20;;
33714;SDS011;20043;50.998;4.754;2024-03-02T07:07:33;3.35;;;0.98;;
33714;SDS011;20043;50.998;4.754;2024-03-02T07:10:00;5.68;;;1.13;;
33714;SDS011;20043;50.998;4.754;2024-03-02T07:12:26;4.70;;;1.35;;
33714;SDS011;20043;50.998;4.754;2024-03-02T07:14:51;6.55;;;1.35;;
33714;SDS011;20043;50.998;4.754;2024-03-02T07:17:29;5.32;;;1.00;;
33714;SDS011;20043;50.998;4.754;2024-03-02T07:19:55;8.65;;;1.98;;
33714;SDS011;20043;50.998;4.754;2024-03-02T07:22:21;8.35;;;1.65;;
33714;SDS011;20043;50.998;4.754;2024-03-02T07:24:47;6.72;;;1.63;;
33714;SDS011;20043;50.998;4.754;2024-03-02T07:27:14;6.38;;;2.20;;
33714;SDS011;20043;50.998;4.754;2024-03-02T07:29:40;7.28;;;2.30;;
33714;SDS011;20043;50.998;4.754;2024-03-02T07:32:06;5.13;;;1.65;;
33714;SDS011;20043;50.998;4.754;2024-03-02T07:34:32;5.00;;;1.30;;
33714;SDS011;20043;50.998;4.754;2024-03-02T07:36:58;5.80;;;1.23;;
33714;SDS011;20043;50.998;4.754;2024-03-02T07:39:24;4.18;;;1.13;;
33714;SDS011;20043;50.998;4.754;2024-03-02T07:41:50;8.93;;;1.20;;
33714;SDS011;20043;50.998;4.754;2024-03-02T07:44:16;3.15;;;1.05;;
33714;SDS011;20043;50.998;4.754;2024-03-02T07:46:44;8.05;;;1.77;;
33714;SDS011;20043;50.998;4.754;2024-03-02T07:49:16;4.57;;;1.50;;
33714;SDS011;20043;50.998;4.754;2024-03-02T07:51:43;3.97;;;1.20;;
33714;SDS011;20043;50.998;4.754;2024-03-02T07:54:09;5.43;;;1.30;;
33714;SDS011;20043;50.998;4.754;2024-03-02T07:56:34;5.85;;;1.33;;
33714;SDS011;20043;50.998;4.754;2024-03-02T07:59:01;5.25;;;1.30;;
33714;SDS011;20043;50.998;4.754;2024-03-02T08:01:27;5.18;;;1.10;;
33714;SDS011;20043;50.998;4.754;2024-03-02T08:03:55;7.70;;;1.25;;
33714;SDS011;20043;50.998;4.754;2024-03-02T08:06:23;3.83;;;1.00;;
33714;SDS011;20043;50.998;4.754;2024-03-02T08:08:55;9.55;;;2.05;;
33714;SDS011;20043;50.998;4.754;2024-03-02T08:11:22;8.18;;;1.40;;
33714;SDS011;20043;50.998;4.754;2024-03-02T08:13:48;5.13;;;1.55;;
33714;SDS011;20043;50.998;4.754;2024-03-02T08:16:16;9.55;;;1.40;;
33714;SDS011;20043;50.998;4.754;2024-03-02T08:18:49;7.40;;;1.30;;
33714;SDS011;20043;50.998;4.754;2024-03-02T08:21:14;4.95;;;1.48;;
33714;SDS011;20043;50.998;4.754;2024-03-02T08:23:40;6.38;;;1.50;;
33714;SDS011;20043;50.998;4.754;2024-03-02T08:26:07;5.35;;;1.30;;
33714;SDS011;20043;50.998;4.754;2024-03-02T08:28:34;11.55;;;1.73;;
33714;SDS011;20043;50.998;4.754;2024-03-02T08:30:59;2.88;;;0.90;;
33714;SDS011;20043;50.998;4.754;2024-03-02T08:33:25;3.60;;;1.02;;
33714;SDS011;20043;50.998;4.754;2024-03-02T08:35:51;5.80;;;1.45;;
33714;SDS011;20043;50.998;4.754;2024-03-02T08:38:16;5.72;;;1.50;;
33714;SDS011;20043;50.998;4.754;2024-03-02T08:40:42;6.38;;;1.45;;
33714;SDS011;20043;50.998;4.754;2024-03-02T08:43:09;9.93;;;1.30;;
33714;SDS011;20043;50.998;4.754;2024-03-02T08:45:35;6.18;;;1.10;;
33714;SDS011;20043;50.998;4.754;2024-03-02T08:48:01;6.68;;;1.38;;
33714;SDS011;20043;50.998;4.754;2024-03-02T08:50:26;6.85;;;1.55;;
33714;SDS011;20043;50.998;4.754;2024-03-02T08:52:52;4.88;;;1.38;;
33714;SDS011;20043;50.998;4.754;2024-03-02T08:55:18;8.65;;;1.60;;
33714;SDS011;20043;50.998;4.754;2024-03-02T08:57:43;9.45;;;1.60;;
33714;SDS011;20043;50.998;4.754;2024-03-02T09:00:09;6.95;;;1.40;;
33714;SDS011;20043;50.998;4.754;2024-03-02T09:02:35;6.93;;;1.70;;
33714;SDS011;20043;50.998;4.754;2024-03-02T09:05:01;5.45;;;1.40;;
33714;SDS011;20043;50.998;4.754;2024-03-02T09:07:27;7.25;;;1.40;;
33714;SDS011;20043;50.998;4.754;2024-03-02T09:09:52;8.50;;;1.67;;
33714;SDS011;20043;50.998;4.754;2024-03-02T09:12:18;8.15;;;1.65;;
33714;SDS011;20043;50.998;4.754;2024-03-02T09:14:44;4.95;;;1.45;;
33714;SDS011;20043;50.998;4.754;2024-03-02T09:30:46;6.65;;;1.60;;
33714;SDS011;20043;50.998;4.754;2024-03-02T09:33:18;7.40;;;1.58;;
33714;SDS011;20043;50.998;4.754;2024-03-02T09:35:44;11.13;;;1.65;;
33714;SDS011;20043;50.998;4.754;2024-03-02T09:38:09;7.28;;;1.73;;
33714;SDS011;20043;50.998;4.754;2024-03-02T09:40:35;8.38;;;1.67;;
33714;SDS011;20043;50.998;4.754;2024-03-02T09:43:01;6.75;;;1.58;;
33714;SDS011;20043;50.998;4.754;2024-03-02T09:45:28;8.80;;;1.90;;
33714;SDS011;20043;50.998;4.754;2024-03-02T09:47:54;10.07;;;2.22;;
33714;SDS011;20043;50.998;4.754;2024-03-02T09:50:20;5.63;;;1.40;;
33714;SDS011;20043;50.998;4.754;2024-03-02T09:52:49;6.68;;;1.45;;
33714;SDS011;20043;50.998;4.754;2024-03-02T09:55:17;4.05;;;1.27;;
33714;SDS011;20043;50.998;4.754;2024-03-02T09:57:44;10.35;;;2.05;;
33714;SDS011;20043;50.998;4.754;2024-03-02T10:00:10;5.65;;;1.80;;
33714;SDS011;20043;50.998;4.754;2024-03-02T10:02:39;4.68;;;1.33;;
33714;SDS011;20043;50.998;4.754;2024-03-02T10:05:09;7.47;;;1.73;;
33714;SDS011;20043;50.998;4.754;2024-03-02T10:07:35;7.40;;;1.52;;
33714;SDS011;20043;50.998;4.754;2024-03-02T10:10:12;6.18;;;1.90;;
33714;SDS011;20043;50.998;4.754;2024-03-02T10:12:39;8.13;;;2.10;;
33714;SDS011;20043;50.998;4.754;2024-03-02T10:15:05;8.48;;;1.98;;
33714;SDS011;20043;50.998;4.754;2024-03-02T10:17:31;10.05;;;2.10;;
33714;SDS011;20043;50.998;4.754;2024-03-02T10:19:57;17.25;;;2.20;;
33714;SDS011;20043;50.998;4.754;2024-03-02T10:22:23;7.45;;;1.63;;
33714;SDS011;20043;50.998;4.754;2024-03-02T10:24:48;14.35;;;1.98;;
33714;SDS011;20043;50.998;4.754;2024-03-02T10:27:15;11.40;;;1.92;;
33714;SDS011;20043;50.998;4.754;2024-03-02T10:29:42;5.95;;;1.70;;
33714;SDS011;20043;50.998;4.754;2024-03-02T10:32:11;7.97;;;1.52;;
33714;SDS011;20043;50.998;4.754;2024-03-02T10:34:37;8.38;;;1.60;;
33714;SDS011;20043;50.998;4.754;2024-03-02T10:37:06;11.85;;;1.88;;
33714;SDS011;20043;50.998;4.754;2024-03-02T10:39:33;8.05;;;1.83;;
33714;SDS011;20043;50.998;4.754;2024-03-02T10:42:04;8.93;;;1.90;;
33714;SDS011;20043;50.998;4.754;2024-03-02T10:44:31;8.13;;;2.00;;
33714;SDS011;20043;50.998;4.754;2024-03-02T10:47:01;3.90;;;1.27;;
33714;SDS011;20043;50.998;4.754;2024-03-02T10:49:31;6.57;;;1.10;;
33714;SDS011;20043;50.998;4.754;2024-03-02T10:51:58;6.50;;;1.42;;
33714;SDS011;20043;50.998;4.754;2024-03-02T10:54:24;7.38;;;1.33;;
33714;SDS011;20043;50.998;4.754;2024-03-02T10:57:01;8.05;;;1.63;;
33714;SDS011;20043;50.998;4.754;2024-03-02T11:01:59;7.03;;;1.70;;
33714;SDS011;20043;50.998;4.754;2024-03-02T11:04:26;8.55;;;1.83;;
33714;SDS011;20043;50.998;4.754;2024-03-02T11:06:54;5.03;;;1.73;;
33714;SDS011;20043;50.998;4.754;2024-03-02T11:09:28;4.60;;;1.30;;
33714;SDS011;20043;50.998;4.754;2024-03-02T11:14:53;7.72;;;1.58;;
33714;SDS011;20043;50.998;4.754;2024-03-02T11:17:21;8.35;;;1.33;;
33714;SDS011;20043;50.998;4.754;2024-03-02T11:19:48;6.70;;;1.20;;
33714;SDS011;20043;50.998;4.754;2024-03-02T11:22:14;8.73;;;1.40;;
33714;SDS011;20043;50.998;4.754;2024-03-02T11:24:47;8.68;;;1.30;;
33714;SDS011;20043;50.998;4.754;2024-03-02T11:27:14;11.93;;;1.70;;
33714;SDS011;20043;50.998;4.754;2024-03-02T11:32:17;11.95;;;1.48;;
33714;SDS011;20043;50.998;4.754;2024-03-02T11:34:46;58.97;;;3.95;;
33714;SDS011;20043;50.998;4.754;2024-03-02T11:37:14;36.33;;;2.50;;
33714;SDS011;20043;50.998;4.754;2024-03-02T11:39:41;6.82;;;1.63;;
33714;SDS011;20043;50.998;4.754;2024-03-02T11:42:13;45.58;;;3.13;;
33714;SDS011;20043;50.998;4.754;2024-03-02T11:44:49;9.07;;;1.75;;
33714;SDS011;20043;50.998;4.754;2024-03-02T11:47:16;7.28;;;1.60;;
33714;SDS011;20043;50.998;4.754;2024-03-02T11:52:15;19.45;;;2.03;;
33714;SDS011;20043;50.998;4.754;2024-03-02T11:54:43;7.32;;;1.50;;
33714;SDS011;20043;50.998;4.754;2024-03-02T11:57:20;10.80;;;1.70;;
33714;SDS011;20043;50.998;4.754;2024-03-02T11:59:49;5.72;;;1.40;;
33714;SDS011;20043;50.998;4.754;2024-03-02T12:02:16;12.52;;;1.58;;
33714;SDS011;20043;50.998;4.754;2024-03-02T12:04:43;6.22;;;1.58;;
33714;SDS011;20043;50.998;4.754;2024-03-02T12:07:10;6.65;;;1.25;;
33714;SDS011;20043;50.998;4.754;2024-03-02T12:09:36;6.80;;;1.50;;
33714;SDS011;20043;50.998;4.754;2024-03-02T12:12:06;11.95;;;2.10;;
33714;SDS011;20043;50.998;4.754;2024-03-02T12:14:33;6.20;;;1.55;;
33714;SDS011;20043;50.998;4.754;2024-03-02T12:17:00;8.75;;;1.88;;
33714;SDS011;20043;50.998;4.754;2024-03-02T12:19:26;6.93;;;1.63;;
33714;SDS011;20043;50.998;4.754;2024-03-02T12:21:52;8.93;;;1.80;;
33714;SDS011;20043;50.998;4.754;2024-03-02T12:24:19;7.65;;;1.58;;
33714;SDS011;20043;50.998;4.754;2024-03-02T12:26:46;10.50;;;1.52;;
33714;SDS011;20043;50.998;4.754;2024-03-02T12:29:13;7.35;;;1.60;;
33714;SDS011;20043;50.998;4.754;2024-03-02T12:31:40;9.90;;;1.63;;
33714;SDS011;20043;50.998;4.754;2024-03-02T12:34:07;7.97;;;1.67;;
33714;SDS011;20043;50.998;4.754;2024-03-02T12:36:39;8.00;;;1.48;;
33714;SDS011;20043;50.998;4.754;2024-03-02T12:39:06;8.77;;;1.77;;
33714;SDS011;20043;50.998;4.754;2024-03-02T12:41:36;8.45;;;1.63;;
33714;SDS011;20043;50.998;4.754;2024-03-02T12:44:05;6.43;;;1.55;;
33714;SDS011;20043;50.998;4.754;2024-03-02T12:46:31;6.90;;;1.60;;
33714;SDS011;20043;50.998;4.754;2024-03-02T12:48:57;8.80;;;1.92;;
33714;SDS011;20043;50.998;4.754;2024-03-02T12:51:24;5.68;;;1.83;;
33714;SDS011;20043;50.998;4.754;2024-03-02T12:53:53;7.53;;;1.80;;
33714;SDS011;20043;50.998;4.754;2024-03-02T12:56:20;7.25;;;1.50;;
33714;SDS011;20043;50.998;4.754;2024-03-02T12:58:46;8.90;;;1.40;;
33714;SDS011;20043;50.998;4.754;2024-03-02T13:01:14;6.72;;;1.88;;
33714;SDS011;20043;50.998;4.754;2024-03-02T13:03:40;8.55;;;1.83;;
33714;SDS011;20043;50.998;4.754;2024-03-02T13:06:06;5.88;;;1.08;;
33714;SDS011;20043;50.998;4.754;2024-03-02T13:08:33;7.72;;;1.65;;
33714;SDS011;20043;50.998;4.754;2024-03-02T13:10:59;8.35;;;1.67;;
33714;SDS011;20043;50.998;4.754;2024-03-02T13:13:24;7.03;;;1.48;;
33714;SDS011;20043;50.998;4.754;2024-03-02T13:15:50;7.90;;;1.48;;
33714;SDS011;20043;50.998;4.754;2024-03-02T13:18:20;6.82;;;1.85;;
33714;SDS011;20043;50.998;4.754;2024-03-02T13:20:46;5.07;;;1.23;;
33714;SDS011;20043;50.998;4.754;2024-03-02T13:23:12;8.90;;;1.35;;
33714;SDS011;20043;50.998;4.754;2024-03-02T13:25:38;6.25;;;1.40;;
33714;SDS011;20043;50.998;4.754;2024-03-02T13:28:03;4.63;;;1.38;;
33714;SDS011;20043;50.998;4.754;2024-03-02T13:30:29;7.68;;;1.35;;
33714;SDS011;20043;50.998;4.754;2024-03-02T13:32:55;8.82;;;1.90;;
33714;SDS011;20043;50.998;4.754;2024-03-02T13:35:20;3.97;;;1.00;;
33714;SDS011;20043;50.998;4.754;2024-03-02T13:37:46;6.72;;;1.15;;
33714;SDS011;20043;50.998;4.754;2024-03-02T13:40:18;9.48;;;1.42;;
33714;SDS011;20043;50.998;4.754;2024-03-02T13:42:48;4.88;;;1.30;;
33714;SDS011;20043;50.998;4.754;2024-03-02T13:45:15;3.97;;;1.02;;
33714;SDS011;20043;50.998;4.754;2024-03-02T13:47:43;4.43;;;1.33;;
33714;SDS011;20043;50.998;4.754;2024-03-02T13:50:08;5.63;;;1.27;;
33714;SDS011;20043;50.998;4.754;2024-03-02T13:52:34;3.15;;;1.08;;
33714;SDS011;20043;50.998;4.754;2024-03-02T13:55:00;6.38;;;1.60;;
33714;SDS011;20043;50.998;4.754;2024-03-02T13:57:25;5.03;;;1.00;;
33714;SDS011;20043;50.998;4.754;2024-03-02T13:59:51;5.00;;;1.02;;
33714;SDS011;20043;50.998;4.754;2024-03-02T14:02:17;4.80;;;1.10;;
33714;SDS011;20043;50.998;4.754;2024-03-02T14:04:43;4.47;;;1.02;;
33714;SDS011;20043;50.998;4.754;2024-03-02T14:07:09;4.65;;;1.13;;
33714;SDS011;20043;50.998;4.754;2024-03-02T14:09:37;5.40;;;1.20;;
33714;SDS011;20043;50.998;4.754;2024-03-02T14:12:02;4.18;;;1.33;;
33714;SDS011;20043;50.998;4.754;2024-03-02T14:14:28;6.75;;;1.30;;
33714;SDS011;20043;50.998;4.754;2024-03-02T14:16:54;5.07;;;1.23;;
33714;SDS011;20043;50.998;4.754;2024-03-02T14:19:31;2.78;;;0.90;;
33714;SDS011;20043;50.998;4.754;2024-03-02T14:21:57;2.95;;;1.10;;
33714;SDS011;20043;50.998;4.754;2024-03-02T14:24:22;4.22;;;1.13;;
33714;SDS011;20043;50.998;4.754;2024-03-02T14:26:51;6.22;;;1.13;;
33714;SDS011;20043;50.998;4.754;2024-03-02T14:29:18;4.88;;;1.45;;
33714;SDS011;20043;50.998;4.754;2024-03-02T14:31:43;8.10;;;1.30;;
33714;SDS011;20043;50.998;4.754;2024-03-02T14:34:12;3.67;;;1.13;;
33714;SDS011;20043;50.998;4.754;2024-03-02T14:36:38;3.33;;;1.10;;
33714;SDS011;20043;50.998;4.754;2024-03-02T14:39:04;4.85;;;1.13;;
33714;SDS011;20043;50.998;4.754;2024-03-02T14:41:34;6.45;;;1.55;;
33714;SDS011;20043;50.998;4.754;2024-03-02T14:43:59;6.45;;;1.20;;
33714;SDS011;20043;50.998;4.754;2024-03-02T14:46:25;8.73;;;1.40;;
33714;SDS011;20043;50.998;4.754;2024-03-02T14:48:50;4.70;;;1.15;;
33714;SDS011;20043;50.998;4.754;2024-03-02T14:51:16;2.50;;;1.00;;
33714;SDS011;20043;50.998;4.754;2024-03-02T14:53:42;6.13;;;1.50;;
33714;SDS011;20043;50.998;4.754;2024-03-02T14:56:07;5.63;;;1.13;;
33714;SDS011;20043;50.998;4.754;2024-03-02T14:58:33;3.20;;;1.15;;
33714;SDS011;20043;50.998;4.754;2024-03-02T15:01:00;2.95;;;1.15;;
33714;SDS011;20043;50.998;4.754;2024-03-02T15:03:26;3.08;;;0.93;;
33714;SDS011;20043;50.998;4.754;2024-03-02T15:05:51;3.47;;;1.17;;
33714;SDS011;20043;50.998;4.754;2024-03-02T15:08:18;2.75;;;0.93;;
33714;SDS011;20043;50.998;4.754;2024-03-02T15:10:44;3.28;;;1.02;;
33714;SDS011;20043;50.998;4.754;2024-03-02T15:13:09;2.67;;;0.93;;
33714;SDS011;20043;50.998;4.754;2024-03-02T15:15:35;5.13;;;0.90;;
33714;SDS011;20043;50.998;4.754;2024-03-02T15:18:01;2.70;;;0.85;;